Bucklin, Kansas
Current Conditions -  °F | °C
As of 7:52 AM on Saturday 20 Dec 2014 (Local Time) from KDDC Reporting Station
Haze Haze  
Wind Chill: 21°   Ceiling: Unl
Heat Index: 30°   Visibility: 4mi
Dew Point: 28°   Wind: 12mph
Humidity: 92%   Direction: 200°SSW
Pressure: 30.09"   Gusts: NA
Location:  37.55°N, 99.63°W
Report Text: KDDC 201352Z AUTO 20010KT 4SM BR CLR M01/M02 A3009 RMK AO2 SLP208 T10111022
Loading
Personal Weather Stations






























Interactive Weather Map New forecast layout! Learn more

10-Day Weather Forecast

Advertisements
Track Severe Weather on mobile